Time;durP1;ratioP1;P1;durP2;ratioP2;P2;SDS_P1;SDS_P2;PMS_P1;PMS_P2;Temp;Humidity;BMP_temperature;BMP_pressure;BME280_temperature;BME280_humidity;BME280_pressure;Samples;Min_cycle;Max_cycle;Signal;HPM_P1;HPM_P2
2022/09/16 00:00:47;;;;;;;7.60;3.90;;;;;;;12.31;76.68;99005.36;105072;1274;1497843;-76
2022/09/16 00:03:16;;;;;;;6.70;4.20;;;;;;;12.31;76.67;99009.79;106266;1274;25304;-75
2022/09/16 00:05:50;;;;;;;7.00;5.10;;;;;;;12.32;76.86;99010.61;106392;1274;22541;-77
2022/09/16 00:08:18;;;;;;;6.30;4.00;;;;;;;12.31;77.05;99014.90;106340;1274;22859;-77
2022/09/16 00:10:45;;;;;;;5.80;4.30;;;;;;;12.29;76.95;99005.27;106568;1274;22478;-77
2022/09/16 00:13:13;;;;;;;9.00;3.90;;;;;;;12.29;77.04;99003.34;106327;1274;22824;-77
2022/09/16 00:15:49;;;;;;;7.60;4.30;;;;;;;12.33;77.08;98999.98;106145;1274;24441;-78
2022/09/16 00:18:17;;;;;;;5.40;4.30;;;;;;;12.36;77.07;99001.12;106060;1276;22540;-77
2022/09/16 00:20:50;;;;;;;5.10;4.00;;;;;;;12.33;77.03;99000.70;106091;1275;22554;-79
2022/09/16 00:23:18;;;;;;;7.70;4.50;;;;;;;12.30;77.20;99004.55;106010;1276;22551;-77
2022/09/16 00:25:53;;;;;;;6.50;4.00;;;;;;;12.30;77.27;99007.53;105851;1275;22562;-78
2022/09/16 00:28:21;;;;;;;5.20;4.00;;;;;;;12.31;77.28;99008.02;105830;1275;25404;-77
2022/09/16 00:30:48;;;;;;;6.60;3.90;;;;;;;12.27;77.38;99008.52;106099;1275;22544;-76
2022/09/16 00:33:16;;;;;;;4.40;3.90;;;;;;;12.24;77.42;99009.67;105958;1276;22553;-77
2022/09/16 00:35:43;;;;;;;5.60;4.20;;;;;;;12.21;77.51;99014.05;106017;1274;22624;-79
2022/09/16 00:38:10;;;;;;;5.10;3.90;;;;;;;12.17;77.60;99023.04;105894;1276;25308;-78
2022/09/16 00:40:44;;;;;;;8.20;4.70;;;;;;;12.16;77.65;99019.35;105990;1276;24106;-77
2022/09/16 00:43:16;;;;;;;5.80;3.90;;;;;;;12.12;77.75;99011.19;105990;1276;24527;-78
2022/09/16 00:45:48;;;;;;;5.00;3.80;;;;;;;12.14;77.80;99016.95;105994;1274;22585;-76
2022/09/16 00:48:20;;;;;;;6.60;3.80;;;;;;;12.14;77.70;99013.07;105951;1274;25606;-76
2022/09/16 00:50:55;;;;;;;6.70;4.40;;;;;;;12.13;77.57;99018.55;105867;1275;25373;-76
2022/09/16 00:53:28;;;;;;;6.30;3.80;;;;;;;12.14;77.57;99014.83;105982;1275;24097;-76
2022/09/16 00:55:58;;;;;;;5.60;3.50;;;;;;;12.14;77.70;99012.71;106023;1274;22702;-75
2022/09/16 00:58:41;;;;;;;4.20;3.80;;;;;;;12.16;77.56;99020.06;105925;1274;22740;-75
2022/09/16 01:01:09;;;;;;;5.90;3.90;;;;;;;12.07;77.65;99015.79;105967;1275;25473;-76
2022/09/16 01:03:45;;;;;;;5.70;4.10;;;;;;;12.08;77.63;99024.94;106033;1274;25312;-75
2022/09/16 01:06:14;;;;;;;5.00;3.60;;;;;;;12.08;77.68;99024.06;105931;1274;24312;-74
2022/09/16 01:08:42;;;;;;;5.40;3.60;;;;;;;12.10;77.63;99022.40;106077;1275;25720;-75
2022/09/16 01:11:09;;;;;;;7.40;4.20;;;;;;;12.10;77.60;99015.31;105922;1274;22699;-74
2022/09/16 01:13:37;;;;;;;6.50;4.00;;;;;;;12.12;77.66;99008.19;106022;1275;24234;-74
2022/09/16 01:16:26;;;;;;;6.90;4.30;;;;;;;12.17;77.61;99012.45;105938;1274;24223;-76
2022/09/16 01:19:30;;;;;;;3.90;3.30;;;;;;;12.17;77.39;99013.14;105943;1274;24191;-74
2022/09/16 01:22:18;;;;;;;8.20;3.80;;;;;;;12.13;77.44;99018.22;105910;1274;22720;-73
2022/09/16 01:24:56;;;;;;;4.60;3.40;;;;;;;12.15;77.49;99020.79;105911;1274;24395;-71
2022/09/16 01:27:53;;;;;;;5.90;4.30;;;;;;;12.13;77.25;99023.48;105981;1275;22553;-75
2022/09/16 01:30:57;;;;;;;4.80;3.40;;;;;;;12.12;77.44;99027.07;105975;1275;23839;-76
2022/09/16 01:33:50;;;;;;;7.00;3.60;;;;;;;12.11;77.34;99032.27;105953;1274;22718;-83
2022/09/16 01:36:44;;;;;;;6.50;4.00;;;;;;;12.07;77.47;99027.77;106405;1273;22757;-75
2022/09/16 01:39:26;;;;;;;5.50;3.80;;;;;;;12.06;77.55;99023.58;106079;1275;22850;-78
2022/09/16 01:42:15;;;;;;;6.80;3.70;;;;;;;12.03;77.46;99023.66;106110;1275;22544;-80
2022/09/16 01:44:45;;;;;;;4.80;3.20;;;;;;;11.96;77.49;99017.59;106091;1275;22638;-79
2022/09/16 01:47:32;;;;;;;6.20;3.80;;;;;;;11.96;77.65;99019.88;106135;1273;22620;-81
2022/09/16 01:50:05;;;;;;;4.30;3.50;;;;;;;11.96;77.60;99018.66;106045;1274;22538;-79
2022/09/16 01:52:56;;;;;;;4.70;3.30;;;;;;;11.96;77.69;99024.30;105773;1280;22597;-85
2022/09/16 01:55:32;;;;;;;4.60;3.30;;;;;;;11.91;77.50;99027.28;105765;1281;22543;-80
2022/09/16 01:58:05;;;;;;;7.70;4.10;;;;;;;11.88;77.68;99029.33;105568;1282;22558;-77
2022/09/16 02:00:32;;;;;;;3.50;3.10;;;;;;;11.92;77.68;99032.04;105644;1281;24364;-77
2022/09/16 02:03:05;;;;;;;4.10;3.60;;;;;;;11.92;77.63;99033.96;105522;1281;24278;-76
2022/09/16 02:05:44;;;;;;;4.10;3.10;;;;;;;11.92;77.66;99038.73;105669;1281;22550;-79
2022/09/16 02:08:19;;;;;;;6.60;3.50;;;;;;;11.89;77.51;99033.86;105730;1281;22856;-74
2022/09/16 02:10:52;;;;;;;4.70;3.10;;;;;;;11.90;77.57;99039.13;105943;1274;22718;-72
2022/09/16 02:13:26;;;;;;;5.80;3.10;;;;;;;11.90;77.49;99037.72;106105;1274;24359;-71
2022/09/16 02:15:56;;;;;;;3.90;2.90;;;;;;;11.91;77.61;99035.05;106161;1274;26505;-75
2022/09/16 02:18:29;;;;;;;6.20;3.10;;;;;;;11.87;77.48;99027.27;105985;1274;23185;-77
2022/09/16 02:20:59;;;;;;;6.30;2.90;;;;;;;11.92;77.42;99035.71;106089;1274;25366;-73
2022/09/16 02:23:32;;;;;;;5.30;3.20;;;;;;;11.96;77.50;99039.30;106064;1274;24537;-74
2022/09/16 02:26:02;;;;;;;5.00;3.10;;;;;;;11.96;77.35;99042.48;105954;1276;22559;-73
2022/09/16 02:28:36;;;;;;;5.50;2.70;;;;;;;11.95;77.33;99040.56;105837;1276;22588;-72
2022/09/16 02:31:06;;;;;;;4.90;2.80;;;;;;;11.97;77.40;99038.91;105879;1276;25318;-74
2022/09/16 02:33:50;;;;;;;3.70;3.00;;;;;;;11.93;77.48;99035.85;105932;1276;24233;-75
2022/09/16 02:36:21;;;;;;;5.40;2.90;;;;;;;11.94;77.42;99039.90;105720;1276;22540;-76
2022/09/16 02:38:54;;;;;;;4.40;2.90;;;;;;;11.92;77.47;99036.45;105979;1274;22708;-72
2022/09/16 02:41:22;;;;;;;4.80;2.80;;;;;;;11.89;77.53;99034.23;105915;1277;24338;-73
2022/09/16 02:43:49;;;;;;;5.70;3.80;;;;;;;11.86;77.50;99033.98;105998;1276;25323;-78
2022/09/16 02:46:36;;;;;;;5.50;2.60;;;;;;;11.90;77.65;99031.91;105886;1276;23992;-79
2022/09/16 02:49:21;;;;;;;3.10;2.80;;;;;;;11.94;77.53;99033.52;105951;1274;25346;-76
2022/09/16 02:52:19;;;;;;;3.90;2.70;;;;;;;11.95;77.53;99029.27;106104;1273;22580;-76
2022/09/16 02:54:55;;;;;;;5.50;2.70;;;;;;;11.92;77.49;99029.02;106048;1275;22523;-78
2022/09/16 02:57:22;;;;;;;4.40;2.90;;;;;;;11.95;77.47;99033.51;105980;1276;25312;-75
2022/09/16 02:59:49;;;;;;;4.30;2.70;;;;;;;11.97;77.52;99028.15;105983;1274;22621;-75
2022/09/16 03:02:16;;;;;;;6.20;3.50;;;;;;;11.97;77.50;99029.36;105905;1278;22706;-76
2022/09/16 03:04:44;;;;;;;5.40;3.10;;;;;;;11.96;77.42;99028.52;106048;1274;22550;-74
2022/09/16 03:07:12;;;;;;;3.20;2.50;;;;;;;11.95;77.61;99030.34;105952;1274;25252;-74
2022/09/16 03:09:42;;;;;;;6.20;3.90;;;;;;;11.90;77.51;99030.16;105909;1275;22690;-82
2022/09/16 03:12:12;;;;;;;4.80;3.50;;;;;;;11.85;77.79;99037.73;105998;1273;22525;-73
2022/09/16 03:15:09;;;;;;;5.70;3.20;;;;;;;11.83;77.99;99037.63;105984;1274;22564;-82
2022/09/16 03:18:08;;;;;;;7.60;4.40;;;;;;;11.83;78.21;99036.77;105802;1278;22995;-74
2022/09/16 03:20:38;;;;;;;6.60;3.30;;;;;;;11.80;78.08;99040.73;105710;1276;23934;-73
2022/09/16 03:23:14;;;;;;;3.00;2.50;;;;;;;11.75;78.18;99044.08;105995;1274;23930;-74
2022/09/16 03:26:06;;;;;;;4.60;2.80;;;;;;;11.71;78.27;99045.46;105980;1274;22613;-83
2022/09/16 03:28:46;;;;;;;6.20;3.10;;;;;;;11.69;78.44;99044.45;105998;1274;22550;-72
2022/09/16 03:31:43;;;;;;;5.80;3.10;;;;;;;11.68;78.67;99049.45;105956;1274;25301;-76
2022/09/16 03:34:22;;;;;;;4.10;2.80;;;;;;;11.64;78.48;99042.69;106066;1274;24871;-74
2022/09/16 03:36:56;;;;;;;5.40;3.10;;;;;;;11.64;78.62;99044.63;106115;1274;22555;-74
2022/09/16 03:39:23;;;;;;;4.80;3.10;;;;;;;11.66;78.60;99048.30;105920;1276;22534;-73
2022/09/16 03:41:51;;;;;;;4.20;3.50;;;;;;;11.60;78.60;99050.24;106138;1274;23230;-75
2022/09/16 03:44:18;;;;;;;4.30;3.10;;;;;;;11.57;78.61;99051.95;105987;1276;22555;-75
2022/09/16 03:46:45;;;;;;;7.00;3.20;;;;;;;11.50;78.74;99051.28;105648;1281;22675;-74
2022/09/16 03:49:12;;;;;;;4.00;2.70;;;;;;;11.48;78.90;99057.19;105673;1279;22541;-76
2022/09/16 03:51:39;;;;;;;5.50;3.20;;;;;;;11.48;78.93;99058.61;105178;1284;22696;-76
2022/09/16 03:54:05;;;;;;;6.30;3.30;;;;;;;11.49;79.06;99058.55;105142;1287;22704;-75
2022/09/16 03:56:32;;;;;;;4.90;3.40;;;;;;;11.44;78.99;99056.61;105439;1284;24491;-75
2022/09/16 03:58:59;;;;;;;5.40;3.30;;;;;;;11.42;79.04;99058.96;105607;1284;26060;-75
2022/09/16 04:01:26;;;;;;;6.90;3.40;;;;;;;11.41;79.22;99059.03;105618;1287;25930;-75
2022/09/16 04:03:52;;;;;;;5.70;3.00;;;;;;;11.36;79.08;99059.16;105407;1287;22624;-74
2022/09/16 04:06:19;;;;;;;5.50;3.40;;;;;;;11.33;79.15;99063.50;105947;1281;24236;-79
2022/09/16 04:08:49;;;;;;;4.00;2.90;;;;;;;11.31;79.22;99063.39;106263;1281;22550;-76
2022/09/16 04:11:16;;;;;;;4.80;3.10;;;;;;;11.29;79.19;99062.73;106288;1275;22691;-77
2022/09/16 04:13:43;;;;;;;5.10;3.60;;;;;;;11.29;79.36;99065.21;106051;1277;22576;-83
2022/09/16 04:16:10;;;;;;;7.10;3.40;;;;;;;11.29;79.47;99068.56;105978;1278;22699;-75
2022/09/16 04:18:37;;;;;;;3.60;3.30;;;;;;;11.27;79.32;99067.58;105864;1278;22547;-78
2022/09/16 04:21:05;;;;;;;4.40;3.10;;;;;;;11.26;79.47;99066.73;105954;1277;25637;-79
2022/09/16 04:23:31;;;;;;;3.50;3.10;;;;;;;11.22;79.39;99067.36;106040;1274;22837;-78
2022/09/16 04:26:00;;;;;;;8.10;3.30;;;;;;;11.18;79.47;99071.75;105899;1277;22875;-81
2022/09/16 04:28:30;;;;;;;3.40;2.80;;;;;;;11.15;79.73;99073.06;106004;1274;25353;-78
2022/09/16 04:31:02;;;;;;;6.20;3.60;;;;;;;11.14;79.77;99073.61;106093;1275;24306;-78
2022/09/16 04:33:32;;;;;;;8.40;3.70;;;;;;;11.14;79.88;99069.59;106084;1275;25506;-76
2022/09/16 04:36:07;;;;;;;4.30;2.60;;;;;;;11.13;79.96;99069.78;106074;1274;23970;-77
2022/09/16 04:38:35;;;;;;;6.60;3.50;;;;;;;11.11;79.88;99067.73;106071;1274;22646;-76
2022/09/16 04:41:08;;;;;;;7.00;4.00;;;;;;;11.10;80.22;99061.27;106127;1274;23994;-78
2022/09/16 04:43:35;;;;;;;5.10;3.90;;;;;;;11.11;80.22;99067.91;106050;1274;22562;-78
2022/09/16 04:46:03;;;;;;;11.80;3.50;;;;;;;11.12;80.15;99075.27;105997;1275;23186;-80
2022/09/16 04:48:30;;;;;;;5.80;3.40;;;;;;;11.12;80.21;99077.20;106231;1274;24384;-79
2022/09/16 04:51:03;;;;;;;5.10;3.50;;;;;;;11.13;80.19;99080.53;106072;1274;24231;-77
2022/09/16 04:53:30;;;;;;;5.30;3.60;;;;;;;11.09;80.28;99079.42;105934;1274;22603;-88
2022/09/16 04:56:12;;;;;;;4.60;3.80;;;;;;;11.10;80.40;99078.34;107284;1277;22485;-90
2022/09/16 04:58:38;;;;;;;4.00;3.40;;;;;;;11.12;80.47;99079.86;106379;1277;24814;-76
2022/09/16 05:01:13;;;;;;;4.40;3.70;;;;;;;11.15;80.43;99084.68;106089;1274;22565;-78
2022/09/16 05:03:45;;;;;;;5.40;3.60;;;;;;;11.15;80.29;99084.52;106065;1274;22500;-79
2022/09/16 05:06:19;;;;;;;6.30;3.50;;;;;;;11.13;80.35;99088.83;106231;1275;24384;-78
2022/09/16 05:08:47;;;;;;;4.20;3.30;;;;;;;11.12;80.43;99087.10;106133;1274;22623;-76
2022/09/16 05:11:20;;;;;;;3.80;3.30;;;;;;;11.13;80.38;99089.36;106008;1274;25436;-80
2022/09/16 05:13:47;;;;;;;6.20;3.60;;;;;;;11.10;80.40;99088.21;106103;1274;23730;-86
2022/09/16 05:16:17;;;;;;;6.30;3.60;;;;;;;11.09;80.44;99083.46;106123;1275;25883;-76
2022/09/16 05:18:46;;;;;;;6.40;2.80;;;;;;;11.12;80.31;99082.00;106115;1274;22718;-73
2022/09/16 05:21:15;;;;;;;4.60;3.10;;;;;;;11.13;80.19;99072.78;106016;1274;22688;-75
2022/09/16 05:23:44;;;;;;;5.10;3.10;;;;;;;11.17;80.17;99082.17;105952;1277;22551;-76
2022/09/16 05:26:17;;;;;;;4.90;3.30;;;;;;;11.20;80.08;99080.48;106017;1274;25371;-75
2022/09/16 05:28:45;;;;;;;4.10;3.30;;;;;;;11.21;80.01;99081.15;105845;1278;24232;-73
2022/09/16 05:31:14;;;;;;;6.90;3.50;;;;;;;11.20;79.88;99081.58;106008;1274;22535;-74
2022/09/16 05:33:44;;;;;;;5.20;3.00;;;;;;;11.23;79.92;99083.23;105988;1274;22531;-75
2022/09/16 05:36:14;;;;;;;6.90;2.90;;;;;;;11.27;79.63;99080.61;106101;1274;22873;-74
2022/09/16 05:38:41;;;;;;;4.20;2.80;;;;;;;11.35;79.85;99089.19;105841;1274;22727;-74
2022/09/16 05:41:28;;;;;;;4.00;2.90;;;;;;;11.37;79.43;99091.56;105903;1273;22538;-76
2022/09/16 05:43:59;;;;;;;5.40;3.00;;;;;;;11.42;79.48;99091.61;105904;1274;24373;-75
2022/09/16 05:46:27;;;;;;;3.50;2.50;;;;;;;11.47;79.20;99097.05;106011;1274;24238;-75
2022/09/16 05:48:55;;;;;;;5.60;2.70;;;;;;;11.51;79.00;99095.13;105906;1274;22654;-75
2022/09/16 05:51:23;;;;;;;6.30;2.90;;;;;;;11.51;78.61;99094.80;106023;1274;25382;-74
2022/09/16 05:53:52;;;;;;;6.10;3.10;;;;;;;11.50;78.55;99096.42;105932;1274;22600;-72
2022/09/16 05:56:24;;;;;;;4.00;2.50;;;;;;;11.46;78.40;99091.62;105949;1274;22527;-73
2022/09/16 05:58:53;;;;;;;5.60;2.70;;;;;;;11.52;78.54;99099.16;105981;1274;22711;-73
2022/09/16 06:01:23;;;;;;;6.00;2.80;;;;;;;11.57;78.23;99091.78;106040;1274;24231;-74
2022/09/16 06:03:51;;;;;;;3.80;2.50;;;;;;;11.57;78.15;99090.00;106003;1274;23931;-75
2022/09/16 06:06:25;;;;;;;4.80;3.00;;;;;;;11.60;77.99;99094.67;105764;1274;22558;-74
2022/09/16 06:08:55;;;;;;;4.40;2.50;;;;;;;11.61;77.89;99094.98;105923;1274;25395;-74
2022/09/16 06:11:23;;;;;;;7.00;3.20;;;;;;;11.62;77.75;99081.06;105816;1276;22475;-73
2022/09/16 06:13:55;;;;;;;6.70;2.80;;;;;;;11.64;77.52;99082.73;106038;1274;25297;-72
2022/09/16 06:16:24;;;;;;;4.60;2.80;;;;;;;11.64;77.53;99082.72;105939;1274;23771;-78
2022/09/16 06:18:52;;;;;;;6.20;2.70;;;;;;;11.69;77.47;99087.14;105938;1274;22541;-73
2022/09/16 06:21:21;;;;;;;5.90;2.60;;;;;;;11.72;77.34;99090.05;106007;1274;26508;-76
2022/09/16 06:23:48;;;;;;;4.20;2.70;;;;;;;11.75;77.18;99090.46;106026;1274;22851;-71
2022/09/16 06:26:19;;;;;;;3.80;2.40;;;;;;;11.81;77.14;99084.27;105882;1274;23203;-76
2022/09/16 06:28:47;;;;;;;3.30;2.30;;;;;;;11.83;76.76;99085.41;106022;1274;22619;-75
2022/09/16 06:31:23;;;;;;;4.10;2.40;;;;;;;11.86;76.79;99084.59;106330;1274;22710;-72
2022/09/16 06:33:50;;;;;;;;;;;;;;;11.89;76.72;99087.15;106008;1275;26507;-75
2022/09/16 06:36:20;;;;;;;8.60;2.60;;;;;;;11.94;76.70;99093.17;106138;1274;25032;-74
2022/09/16 06:38:48;;;;;;;4.00;2.30;;;;;;;11.97;76.36;99086.88;106013;1274;22508;-75
2022/09/16 06:41:17;;;;;;;7.00;2.50;;;;;;;12.00;76.27;99086.79;106086;1274;22578;-73
2022/09/16 06:43:44;;;;;;;4.50;2.40;;;;;;;12.06;76.16;99090.28;106181;1274;22674;-76
2022/09/16 06:46:16;;;;;;;3.50;2.00;;;;;;;12.09;75.91;99084.71;106115;1274;25253;-75
2022/09/16 06:48:50;;;;;;;5.50;2.20;;;;;;;12.11;75.97;99084.81;105899;1276;25246;-78
2022/09/16 06:51:42;;;;;;;3.30;1.90;;;;;;;12.17;75.75;99076.65;105454;1281;22550;-74
2022/09/16 06:54:09;;;;;;;3.40;2.30;;;;;;;12.18;75.33;99073.29;105393;1281;25468;-75
2022/09/16 06:56:38;;;;;;;8.00;2.30;;;;;;;12.17;75.38;99076.31;105402;1281;23938;-74
2022/09/16 06:59:05;;;;;;;3.00;1.90;;;;;;;12.19;75.26;99075.91;105574;1281;23292;-74
2022/09/16 07:01:32;;;;;;;2.70;2.00;;;;;;;12.18;74.91;99075.42;105296;1281;25436;-76
2022/09/16 07:04:04;;;;;;;4.90;2.30;;;;;;;12.16;75.01;99077.05;105168;1282;22544;-75
2022/09/16 07:06:32;;;;;;;6.30;2.50;;;;;;;12.21;74.70;99079.00;105125;1282;22545;-75
2022/09/16 07:09:19;;;;;;;6.60;2.10;;;;;;;12.20;74.36;99076.40;105489;1274;22531;-74
2022/09/16 07:11:46;;;;;;;7.20;2.10;;;;;;;12.24;74.57;99086.81;105846;1276;24398;-75
2022/09/16 07:14:13;;;;;;;9.20;2.30;;;;;;;12.32;74.29;99090.95;105883;1276;22587;-75
2022/09/16 07:16:39;;;;;;;5.10;2.20;;;;;;;12.36;73.91;99085.30;105932;1274;22552;-75
2022/09/16 07:19:06;;;;;;;7.00;2.30;;;;;;;12.41;73.75;99084.99;106022;1274;24761;-74
2022/09/16 07:21:33;;;;;;;7.10;2.70;;;;;;;12.44;73.23;99083.98;105778;1277;25313;-75
2022/09/16 07:24:02;;;;;;;5.10;2.30;;;;;;;12.48;72.86;99089.13;105897;1274;23064;-74
2022/09/16 07:26:32;;;;;;;5.80;2.20;;;;;;;12.54;72.00;99086.98;105984;1274;25357;-76
2022/09/16 07:29:02;;;;;;;3.80;1.90;;;;;;;12.60;71.75;99092.71;105855;1278;24267;-75
2022/09/16 07:31:31;;;;;;;12.70;2.50;;;;;;;12.67;71.14;99088.59;105914;1274;26517;-74
2022/09/16 07:34:02;;;;;;;4.10;1.90;;;;;;;12.72;70.94;99092.10;105986;1274;25463;-74
2022/09/16 07:36:33;;;;;;;5.20;1.80;;;;;;;12.76;70.57;99090.52;106132;1275;24227;-76
2022/09/16 07:39:01;;;;;;;5.00;2.00;;;;;;;12.83;69.17;99100.67;105971;1275;22550;-75
2022/09/16 07:41:32;;;;;;;5.00;1.80;;;;;;;12.86;68.78;99100.58;106156;1275;25257;-77
2022/09/16 07:44:00;;;;;;;6.30;1.60;;;;;;;12.90;68.89;99104.65;106206;1274;22482;-77
2022/09/16 07:46:31;;;;;;;5.40;1.90;;;;;;;12.97;68.97;99096.96;106306;1274;23405;-76
2022/09/16 07:48:59;;;;;;;8.70;1.80;;;;;;;13.07;68.00;99106.27;106315;1274;22602;-76
2022/09/16 07:51:27;;;;;;;5.50;1.80;;;;;;;13.13;67.28;99106.41;106339;1274;22640;-75
2022/09/16 07:53:58;;;;;;;5.10;1.70;;;;;;;13.16;66.50;99102.57;106526;1274;22701;-76
2022/09/16 07:56:29;;;;;;;4.80;1.60;;;;;;;13.17;66.15;99101.10;106389;1274;22624;-76
2022/09/16 07:58:56;;;;;;;6.40;1.80;;;;;;;13.20;65.39;99104.16;106536;1274;25301;-75
2022/09/16 08:01:24;;;;;;;7.40;2.00;;;;;;;13.24;65.88;99097.66;106660;1274;25894;-73
2022/09/16 08:03:52;;;;;;;6.10;1.70;;;;;;;13.31;64.82;99108.16;106639;1274;25367;-75
2022/09/16 08:06:22;;;;;;;6.90;2.00;;;;;;;13.34;64.26;99110.14;106568;1274;25368;-76
2022/09/16 08:08:55;;;;;;;8.50;1.50;;;;;;;13.32;64.22;99107.02;106433;1276;22624;-76
2022/09/16 08:11:35;;;;;;;4.40;1.70;;;;;;;13.42;64.19;99113.38;106344;1275;25253;-76
2022/09/16 08:14:02;;;;;;;6.70;1.70;;;;;;;13.54;63.68;99111.66;106079;1274;25438;-75
2022/09/16 08:16:29;;;;;;;7.60;2.00;;;;;;;13.67;63.24;99112.40;106001;1274;23831;-77
2022/09/16 08:18:57;;;;;;;6.60;2.20;;;;;;;13.75;63.02;99109.71;105881;1276;25312;-76
2022/09/16 08:21:27;;;;;;;4.30;1.60;;;;;;;13.86;63.03;99109.98;106055;1274;24429;-74
2022/09/16 08:23:55;;;;;;;4.50;1.90;;;;;;;13.92;62.14;99106.02;105877;1276;22553;-75
2022/09/16 08:26:23;;;;;;;3.40;1.90;;;;;;;14.00;62.00;99108.30;106027;1274;23806;-74
2022/09/16 08:28:50;;;;;;;5.30;1.30;;;;;;;14.11;61.35;99106.41;105819;1274;25309;-71
2022/09/16 08:31:34;;;;;;;5.80;1.80;;;;;;;14.14;59.73;99098.31;105999;1274;22587;-72
2022/09/16 08:34:01;;;;;;;5.40;1.70;;;;;;;14.14;59.70;99098.53;106013;1274;24255;-74
2022/09/16 08:36:28;;;;;;;9.30;1.80;;;;;;;14.21;59.46;99101.72;106063;1275;24395;-73
2022/09/16 08:38:55;;;;;;;3.90;2.50;;;;;;;14.30;59.37;99102.06;105975;1274;22560;-76
2022/09/16 08:41:34;;;;;;;7.70;1.90;;;;;;;14.27;58.77;99106.23;106061;1274;22719;-74
2022/09/16 08:44:31;;;;;;;6.30;1.90;;;;;;;14.28;58.86;99099.48;105957;1274;23959;-73
2022/09/16 08:47:07;;;;;;;7.50;2.10;;;;;;;14.34;58.27;99104.54;105961;1274;22556;-76
2022/09/16 08:49:42;;;;;;;4.90;1.70;;;;;;;14.30;57.48;99098.70;106174;1274;22543;-75
2022/09/16 08:52:32;;;;;;;4.60;2.00;;;;;;;14.32;56.70;99103.52;106008;1274;24516;-76
2022/09/16 08:55:14;;;;;;;3.70;1.60;;;;;;;14.37;57.10;99102.23;105872;1276;22699;-74
2022/09/16 08:58:07;;;;;;;5.30;1.70;;;;;;;14.53;57.18;99094.83;105987;1274;22693;-76
2022/09/16 09:00:36;;;;;;;5.70;1.90;;;;;;;14.50;56.69;99093.52;105979;1274;23570;-77
2022/09/16 09:03:24;;;;;;;5.80;1.90;;;;;;;14.52;57.07;99089.35;106020;1274;24446;-76
2022/09/16 09:05:54;;;;;;;4.10;1.50;;;;;;;14.51;55.79;99091.70;105976;1273;24983;-72
2022/09/16 09:08:50;;;;;;;4.00;1.60;;;;;;;14.53;55.35;99092.68;106020;1273;22690;-75
2022/09/16 09:11:41;;;;;;;4.80;2.00;;;;;;;14.60;55.10;99092.87;105906;1273;24335;-72
2022/09/16 09:14:34;;;;;;;4.50;1.60;;;;;;;14.54;54.84;99089.98;106053;1273;25246;-75
2022/09/16 09:17:04;;;;;;;7.70;1.70;;;;;;;14.63;54.76;99102.29;105813;1274;25253;-76
2022/09/16 09:19:57;;;;;;;4.10;1.20;;;;;;;14.82;55.43;99098.09;106050;1273;25411;-76
2022/09/16 09:25:58;;;;;;;2.40;1.40;;;;;;;15.15;53.86;99098.29;105910;1274;25441;-76
2022/09/16 09:29:03;;;;;;;5.50;1.70;;;;;;;15.22;53.40;99105.24;105877;1275;22559;-79
2022/09/16 09:31:51;;;;;;;5.30;1.70;;;;;;;15.33;53.67;99104.52;106008;1274;22550;-79
2022/09/16 09:34:30;;;;;;;7.60;1.80;;;;;;;15.32;53.01;99101.00;106096;1274;23958;-75
2022/09/16 09:37:36;;;;;;;4.50;1.60;;;;;;;15.56;52.80;99108.02;106045;1273;24273;-75
2022/09/16 09:40:36;;;;;;;4.50;1.50;;;;;;;15.78;51.52;99109.76;106076;1273;24341;-75
2022/09/16 09:43:17;;;;;;;3.60;1.40;;;;;;;15.73;51.53;99091.70;105933;1273;24292;-72
2022/09/16 09:46:22;;;;;;;4.60;1.60;;;;;;;16.00;51.80;99098.52;106007;1273;22711;-75
2022/09/16 09:49:09;;;;;;;8.20;1.80;;;;;;;16.12;50.98;99090.85;105744;1273;22598;-74
2022/09/16 09:51:42;;;;;;;5.30;1.80;;;;;;;16.19;50.65;99086.20;106001;1273;25246;-76
2022/09/16 09:54:24;;;;;;;6.20;2.00;;;;;;;16.20;50.31;99096.96;105998;1273;25405;-73
2022/09/16 09:57:02;;;;;;;6.60;2.20;;;;;;;15.94;51.13;99102.36;105871;1274;24270;-75
2022/09/16 10:00:16;;;;;;;5.30;1.50;;;;;;;15.76;51.84;99108.08;106118;1273;22569;-73
2022/09/16 10:02:45;;;;;;;6.20;1.80;;;;;;;15.66;51.74;99101.98;105443;1281;22597;-76
2022/09/16 10:05:26;;;;;;;5.60;1.60;;;;;;;15.71;52.08;99099.95;105970;1274;22556;-76
2022/09/16 10:08:12;;;;;;;2.70;1.30;;;;;;;15.69;51.84;99103.42;105981;1274;22766;-75
2022/09/16 10:10:52;;;;;;;4.10;1.60;;;;;;;15.86;52.11;99101.72;105966;1274;25316;-73
2022/09/16 10:13:21;;;;;;;5.20;1.80;;;;;;;15.89;52.01;99099.81;106193;1274;22745;-76
2022/09/16 10:15:49;;;;;;;4.40;1.80;;;;;;;15.90;52.44;99096.02;105998;1275;25242;-75
2022/09/16 10:18:28;;;;;;;4.10;1.40;;;;;;;16.00;52.47;99099.24;105967;1274;26602;-75
2022/09/16 10:21:03;;;;;;;3.30;1.40;;;;;;;15.92;51.88;99105.49;106048;1274;25446;-73
2022/09/16 10:23:31;;;;;;;6.10;1.50;;;;;;;15.81;51.57;99097.71;105751;1281;25291;-75
2022/09/16 10:26:16;;;;;;;4.50;1.70;;;;;;;15.98;51.51;99105.36;105639;1281;22550;-70
2022/09/16 10:29:14;;;;;;;4.20;1.50;;;;;;;16.17;51.16;99105.31;105653;1281;22729;-72
2022/09/16 10:31:42;;;;;;;3.80;1.40;;;;;;;16.09;50.89;99106.58;105408;1281;22882;-72
2022/09/16 10:34:38;;;;;;;4.70;1.40;;;;;;;15.93;50.86;99108.81;105670;1281;23927;-73
2022/09/16 10:37:11;;;;;;;3.00;1.10;;;;;;;15.72;51.84;99113.98;105411;1281;24451;-70
2022/09/16 10:39:42;;;;;;;5.30;1.60;;;;;;;15.65;52.15;99116.08;105753;1281;22576;-72
2022/09/16 10:42:25;;;;;;;6.10;1.90;;;;;;;15.48;52.54;99114.96;105579;1274;25250;-77
2022/09/16 10:44:55;;;;;;;6.70;1.50;;;;;;;15.38;53.18;99116.36;105991;1275;22559;-75
2022/09/16 10:47:25;;;;;;;6.70;2.10;;;;;;;15.35;53.22;99110.83;106216;1274;22546;-75
2022/09/16 10:50:03;;;;;;;3.90;1.30;;;;;;;15.38;53.35;99109.42;106145;1273;22561;-76
2022/09/16 10:52:42;;;;;;;5.70;1.40;;;;;;;15.35;53.42;99112.59;106048;1274;22580;-77
2022/09/16 10:55:18;;;;;;;4.40;1.50;;;;;;;15.69;52.54;99103.27;106059;1274;22981;-73
2022/09/16 10:57:46;;;;;;;4.60;1.40;;;;;;;16.00;52.14;99097.11;105996;1273;22550;-72
2022/09/16 11:00:23;;;;;;;4.30;1.30;;;;;;;16.25;51.74;99096.55;105991;1274;25409;-76
2022/09/16 11:03:10;;;;;;;2.90;1.40;;;;;;;16.18;51.59;99101.31;105962;1274;22850;-72
2022/09/16 11:05:43;;;;;;;3.50;1.30;;;;;;;16.22;51.38;99108.38;105882;1275;22704;-77
2022/09/16 11:08:22;;;;;;;2.80;1.40;;;;;;;16.10;50.35;99104.05;105985;1274;22543;-77
2022/09/16 11:11:03;;;;;;;2.50;1.20;;;;;;;16.15;50.52;99097.23;105974;1272;22728;-74
2022/09/16 11:13:56;;;;;;;2.40;1.20;;;;;;;16.11;50.10;99104.00;105960;1274;22712;-75
2022/09/16 11:17:04;;;;;;;3.30;1.20;;;;;;;15.92;49.96;99104.60;105965;1274;22703;-73
2022/09/16 11:19:33;;;;;;;5.20;1.70;;;;;;;16.16;49.95;99102.17;106088;1274;24958;-75
2022/09/16 11:22:38;;;;;;;3.90;1.10;;;;;;;16.44;49.62;99092.31;106021;1274;26642;-73
2022/09/16 11:25:17;;;;;;;1.80;1.10;;;;;;;16.76;48.62;99090.93;105613;1281;22711;-75
2022/09/16 11:27:48;;;;;;;3.70;1.20;;;;;;;16.93;48.23;99082.52;105568;1281;22647;-74
2022/09/16 11:30:24;;;;;;;2.80;0.90;;;;;;;17.27;47.71;99077.97;105543;1281;22888;-73
2022/09/16 11:32:56;;;;;;;3.00;1.00;;;;;;;17.26;47.15;99077.70;105302;1281;22878;-72
2022/09/16 11:35:55;;;;;;;2.10;1.10;;;;;;;17.18;46.73;99077.07;105651;1280;22543;-75
2022/09/16 11:38:40;;;;;;;2.90;0.80;;;;;;;17.01;46.53;99069.07;105659;1281;23232;-76
2022/09/16 11:41:39;;;;;;;2.30;0.80;;;;;;;16.73;46.59;99067.66;105627;1281;25333;-76
2022/09/16 11:44:41;;;;;;;5.40;1.30;;;;;;;16.54;47.07;99064.40;106006;1274;22709;-75
2022/09/16 11:47:42;;;;;;;3.90;1.10;;;;;;;16.36;47.22;99061.14;106025;1274;25548;-77
2022/09/16 11:50:16;;;;;;;1.80;0.90;;;;;;;16.50;47.04;99063.02;106043;1274;25255;-78
2022/09/16 11:52:52;;;;;;;7.20;1.50;;;;;;;16.66;46.34;99063.77;106048;1274;22539;-77
2022/09/16 11:55:36;;;;;;;3.90;1.10;;;;;;;16.86;46.25;99062.09;106148;1274;26896;-76
2022/09/16 11:58:17;;;;;;;3.40;1.50;;;;;;;17.29;45.74;99059.73;106174;1274;22538;-76
2022/09/16 12:00:47;;;;;;;4.50;1.10;;;;;;;17.68;45.23;99061.89;105339;1274;1544794;-75
2022/09/16 12:03:35;;;;;;;2.60;1.10;;;;;;;17.86;44.17;99069.73;106290;1276;24462;-75